Grider Field
KPBF : now visible

Airfield :











YOU CAN JOIN US ON...

 
LOGIN :

Register | Disclaimer

   EN    FR    IT 

 









Legend :    VFR   Marginal VFR   IFR   Intensive IFR   Very Intensive IFR
Visi :
Ceiling :
>= 8 km
>= 3000ft
5 to 8 km
1000 to 3000 ft
1500m to 5 km
500 to 1000 ft
800 to 1500m
200 to 500 ft
< 800m
< 200 ft
Symbols :   Thunderstorms  Fog  Heavy snow  Heavy precipitations  Wind > 20 kt






- Airport Elevation : 206 ft


KPBF - Grider Field

CURRENT METAR :
  • 171353Z AUTO 00000KT 7SM CLR 01/M01 A3010 RMK AO2 SLP195 T00111006

EXPIRED METARs :
  • 171253Z AUTO 00000KT 8SM CLR M01/M02 A3010 RMK AO2 SLP192 T10111022
  • 171153Z AUTO 00000KT 9SM CLR M01/M02 A3011 RMK AO2 SLP196 T10111022 10011 21011 56004

TAF KPBF
Valid from the 17 at 12:00 until the 18 at 12:00 UTC


171120Z 1712/1812 VRB03KT P6SM SKC
FM171800 24005KT P6SM FEW250



MET'MAP, your aeronautical weather chart ! - Copyright ORBIFLY December 2007 - Disclaimer

ORBIFLY MET'MAP TEAM :

Programming & Development : Alexandra Zaïnal
Concept & Development : Baudouin d'Aumeries
Co-Development & Prog : Marc-Olivier Méhu
Technical & hardware support : Manuel Goepfert

Contact : metmap@orbifly.com




SOURCES & CREDITS :

   NOAA       Earth
Advisory